createdAt,value
2022-11-26T00:01:38.766Z,3.40
2022-11-26T00:04:06.582Z,3.50
2022-11-26T00:06:37.590Z,3.50
2022-11-26T00:09:05.896Z,3.40
2022-11-26T00:11:33.128Z,3.50
2022-11-26T00:13:59.816Z,3.50
2022-11-26T00:16:27.065Z,3.50
2022-11-26T00:18:53.687Z,3.40
2022-11-26T00:21:21.781Z,3.40
2022-11-26T00:23:48.848Z,3.30
2022-11-26T00:26:17.221Z,3.40
2022-11-26T00:29:02.161Z,3.40
2022-11-26T00:31:29.026Z,3.50
2022-11-26T00:33:55.964Z,3.30
2022-11-26T00:36:27.328Z,3.40
2022-11-26T00:38:56.200Z,3.40
2022-11-26T00:41:23.573Z,3.40
2022-11-26T00:43:50.527Z,3.40
2022-11-26T00:46:18.466Z,3.50
2022-11-26T00:48:45.174Z,3.60
2022-11-26T00:51:14.066Z,3.60
2022-11-26T00:53:41.065Z,3.60
2022-11-26T00:56:12.755Z,3.60
2022-11-26T00:58:39.360Z,3.70
2022-11-26T01:01:06.042Z,3.70
2022-11-26T01:03:32.742Z,3.70
2022-11-26T01:05:59.920Z,3.70
2022-11-26T01:08:29.934Z,3.60
2022-11-26T01:10:58.243Z,3.60
2022-11-26T01:13:25.191Z,3.60
2022-11-26T01:15:51.850Z,3.70
2022-11-26T01:18:21.092Z,3.70
2022-11-26T01:20:47.888Z,3.70
2022-11-26T01:23:16.026Z,3.70
2022-11-26T01:25:42.995Z,3.80
2022-11-26T01:28:27.628Z,3.70
2022-11-26T01:30:54.234Z,3.60
2022-11-26T01:33:20.832Z,3.60
2022-11-26T01:35:47.488Z,3.50
2022-11-26T01:38:14.688Z,3.50
2022-11-26T01:40:41.307Z,3.50
2022-11-26T01:43:14.547Z,3.50
2022-11-26T01:45:41.295Z,3.50
2022-11-26T01:48:25.867Z,3.60
2022-11-26T01:50:54.772Z,3.60
2022-11-26T01:53:27.960Z,3.70
2022-11-26T01:55:56.744Z,3.70
2022-11-26T01:58:25.363Z,3.70
2022-11-26T02:00:52.161Z,3.70
2022-11-26T02:03:22.636Z,3.80
2022-11-26T02:05:54.594Z,3.80
2022-11-26T02:08:21.360Z,3.70
2022-11-26T02:10:48.300Z,3.70
2022-11-26T02:13:14.961Z,3.60
2022-11-26T02:15:47.022Z,3.60
2022-11-26T02:18:14.271Z,3.60
2022-11-26T02:20:41.833Z,3.60
2022-11-26T02:23:17.603Z,3.60
2022-11-26T02:26:02.674Z,3.60
2022-11-26T02:28:48.143Z,3.60
2022-11-26T02:31:30.154Z,3.60
2022-11-26T02:33:59.820Z,3.70
2022-11-26T02:36:35.238Z,3.70
2022-11-26T02:39:12.464Z,3.60
2022-11-26T02:41:46.248Z,3.60
2022-11-26T02:44:14.628Z,3.70
2022-11-26T02:46:41.870Z,3.70
2022-11-26T02:49:09.593Z,3.70
2022-11-26T02:51:36.644Z,3.60
2022-11-26T02:54:05.224Z,3.60
2022-11-26T02:56:31.879Z,3.70
2022-11-26T02:58:59.479Z,3.70
2022-11-26T03:01:35.499Z,3.70
2022-11-26T03:04:05.364Z,3.80
2022-11-26T03:06:32.867Z,3.80
2022-11-26T03:08:59.731Z,3.80
2022-11-26T03:11:26.763Z,3.80
2022-11-26T03:13:53.503Z,3.80
2022-11-26T03:16:20.323Z,3.80
2022-11-26T03:18:47.085Z,3.80
2022-11-26T03:21:13.686Z,3.70
2022-11-26T03:23:40.386Z,3.70
2022-11-26T03:26:07.024Z,3.70
2022-11-26T03:28:33.614Z,3.70
2022-11-26T03:31:00.337Z,3.70
2022-11-26T03:33:26.978Z,3.70
2022-11-26T03:35:53.604Z,3.70
2022-11-26T03:38:20.205Z,3.80
2022-11-26T03:40:55.158Z,3.80
2022-11-26T03:43:21.774Z,3.80
2022-11-26T03:45:48.413Z,3.70
2022-11-26T03:48:15.067Z,3.70
2022-11-26T03:50:41.679Z,3.80
2022-11-26T03:53:08.538Z,3.70
2022-11-26T03:55:35.223Z,3.80
2022-11-26T03:58:01.844Z,3.90
2022-11-26T04:00:28.454Z,4.00
2022-11-26T04:02:55.235Z,4.00
2022-11-26T04:05:21.910Z,4.00
2022-11-26T04:07:48.541Z,4.00
2022-11-26T04:10:15.263Z,4.10
2022-11-26T04:12:41.855Z,4.10
2022-11-26T04:15:08.849Z,4.10
2022-11-26T04:17:35.446Z,4.10
2022-11-26T04:20:02.041Z,4.10
2022-11-26T04:22:28.626Z,4.00
2022-11-26T04:24:55.225Z,4.00
2022-11-26T04:27:21.831Z,4.00
2022-11-26T04:29:48.423Z,4.00
2022-11-26T04:32:15.014Z,4.10
2022-11-26T04:34:41.616Z,4.00
2022-11-26T04:37:08.212Z,4.10
2022-11-26T04:39:35.647Z,4.10
2022-11-26T04:42:02.429Z,4.10
2022-11-26T04:44:29.050Z,4.10
2022-11-26T04:46:55.643Z,4.10
2022-11-26T04:49:22.302Z,4.10
2022-11-26T04:51:48.903Z,4.10
2022-11-26T04:54:15.528Z,4.10
2022-11-26T04:56:42.212Z,4.10
2022-11-26T04:59:08.835Z,4.10
2022-11-26T05:01:35.527Z,4.10
2022-11-26T05:04:02.342Z,4.10
2022-11-26T05:06:28.934Z,4.10
2022-11-26T05:08:55.575Z,4.10
2022-11-26T05:11:22.162Z,4.10
2022-11-26T05:13:48.847Z,4.10
2022-11-26T05:16:15.475Z,4.00
2022-11-26T05:18:42.731Z,3.90
2022-11-26T05:21:09.338Z,3.90
2022-11-26T05:23:35.937Z,3.90
2022-11-26T05:26:02.549Z,3.90
2022-11-26T05:28:29.182Z,3.90
2022-11-26T05:31:00.092Z,3.80
2022-11-26T05:33:26.821Z,3.90
2022-11-26T05:35:53.529Z,3.80
2022-11-26T05:38:20.179Z,3.90
2022-11-26T05:40:46.926Z,3.90
2022-11-26T05:43:13.565Z,3.90
2022-11-26T05:45:40.222Z,4.00
2022-11-26T05:48:06.877Z,4.00
2022-11-26T05:50:33.737Z,4.00
2022-11-26T05:53:00.453Z,4.00
2022-11-26T05:55:27.116Z,3.90
2022-11-26T05:57:53.719Z,3.90
2022-11-26T06:00:20.378Z,3.90
2022-11-26T06:02:47.116Z,3.90
2022-11-26T06:05:13.891Z,3.80
2022-11-26T06:07:44.625Z,3.90
2022-11-26T06:10:12.229Z,3.90
2022-11-26T06:12:38.846Z,3.90
2022-11-26T06:15:05.787Z,3.90
2022-11-26T06:17:32.623Z,3.90
2022-11-26T06:19:59.785Z,3.90
2022-11-26T06:22:26.415Z,3.90
2022-11-26T06:24:53.014Z,3.90
2022-11-26T06:27:19.594Z,3.80
2022-11-26T06:29:46.194Z,3.80
2022-11-26T06:32:12.878Z,3.70
2022-11-26T06:34:42.519Z,3.70
2022-11-26T06:37:10.465Z,3.60
2022-11-26T06:39:37.161Z,3.70
2022-11-26T06:42:04.179Z,3.70
2022-11-26T06:44:30.832Z,3.70
2022-11-26T06:46:57.419Z,3.60
2022-11-26T06:49:24.223Z,3.60
2022-11-26T06:51:50.978Z,3.70
2022-11-26T06:54:17.643Z,3.70
2022-11-26T06:56:44.603Z,3.70
2022-11-26T06:59:11.236Z,3.70
2022-11-26T07:01:38.167Z,3.70
2022-11-26T07:04:05.168Z,3.70
2022-11-26T07:06:32.851Z,3.70
2022-11-26T07:09:02.222Z,3.70
2022-11-26T07:11:28.982Z,3.70
2022-11-26T07:13:55.726Z,3.60
2022-11-26T07:16:22.417Z,3.70
2022-11-26T07:18:50.022Z,3.70
2022-11-26T07:21:16.685Z,3.80
2022-11-26T07:23:43.383Z,3.70
2022-11-26T07:26:11.105Z,3.70
2022-11-26T07:28:37.749Z,3.80
2022-11-26T07:31:08.127Z,3.80
2022-11-26T07:33:37.109Z,3.90
2022-11-26T07:36:05.265Z,4.00
2022-11-26T07:38:32.134Z,4.10
2022-11-26T07:41:03.336Z,4.10
2022-11-26T07:43:30.271Z,4.20
2022-11-26T07:45:57.021Z,4.30
2022-11-26T07:48:23.675Z,4.30
2022-11-26T07:50:50.280Z,4.40
2022-11-26T07:53:16.912Z,4.30
2022-11-26T07:55:43.521Z,4.20
2022-11-26T07:58:10.113Z,4.10
2022-11-26T08:00:36.708Z,4.00
2022-11-26T08:03:03.405Z,4.00
2022-11-26T08:05:30.072Z,4.00
2022-11-26T08:07:56.756Z,4.10
2022-11-26T08:10:23.402Z,4.00
2022-11-26T08:12:50.063Z,4.00
2022-11-26T08:15:16.691Z,4.00
2022-11-26T08:17:43.277Z,4.00
2022-11-26T08:20:10.198Z,4.00
2022-11-26T08:22:36.808Z,4.00
2022-11-26T08:25:03.482Z,4.00
2022-11-26T08:27:31.681Z,4.00
2022-11-26T08:29:58.286Z,4.00
2022-11-26T08:32:24.928Z,4.00
2022-11-26T08:34:51.732Z,4.00
2022-11-26T08:37:18.357Z,4.00
2022-11-26T08:39:44.967Z,4.10
2022-11-26T08:42:11.570Z,4.20
2022-11-26T08:44:38.594Z,4.20
2022-11-26T08:47:05.316Z,4.20
2022-11-26T08:49:32.070Z,4.30
2022-11-26T08:51:58.768Z,4.30
2022-11-26T08:54:25.536Z,4.40
2022-11-26T08:56:52.371Z,4.40
2022-11-26T08:59:20.648Z,4.50
2022-11-26T09:01:47.331Z,4.50
2022-11-26T09:04:14.120Z,4.40
2022-11-26T09:06:41.437Z,4.50
2022-11-26T09:09:14.538Z,4.40
2022-11-26T09:11:49.518Z,4.50
2022-11-26T09:14:18.505Z,4.60
2022-11-26T09:16:45.233Z,4.70
2022-11-26T09:19:12.652Z,4.80
2022-11-26T09:21:39.275Z,5.00
2022-11-26T09:24:06.103Z,5.00
2022-11-26T09:26:33.280Z,5.20
2022-11-26T09:28:59.929Z,5.20
2022-11-26T09:31:26.698Z,5.20
2022-11-26T09:33:56.750Z,5.20
2022-11-26T09:36:23.362Z,5.30
2022-11-26T09:38:53.199Z,5.60
2022-11-26T09:41:19.844Z,5.70
2022-11-26T09:43:58.791Z,5.80
2022-11-26T09:46:41.007Z,5.70
2022-11-26T09:49:18.209Z,5.70
2022-11-26T09:51:46.775Z,5.40
2022-11-26T09:54:18.550Z,5.40
2022-11-26T09:56:45.207Z,5.30
2022-11-26T09:59:13.083Z,5.20
2022-11-26T10:01:40.638Z,5.20
2022-11-26T10:04:08.315Z,5.30
2022-11-26T10:06:39.302Z,5.40
2022-11-26T10:09:22.668Z,5.50
2022-11-26T10:11:56.015Z,5.50
2022-11-26T10:14:38.382Z,5.40
2022-11-26T10:17:20.259Z,5.50
2022-11-26T10:19:52.787Z,5.60
2022-11-26T10:22:24.470Z,5.90
2022-11-26T10:24:51.100Z,6.00
2022-11-26T10:27:18.820Z,5.90
2022-11-26T10:29:50.803Z,5.90
2022-11-26T10:32:25.024Z,5.80
2022-11-26T10:34:52.862Z,5.90
2022-11-26T10:37:20.675Z,5.80
2022-11-26T10:39:47.713Z,5.80
2022-11-26T10:42:21.873Z,6.00
2022-11-26T10:44:49.432Z,6.10
2022-11-26T10:47:24.163Z,6.20
2022-11-26T10:49:51.876Z,6.10
2022-11-26T10:52:23.281Z,6.10
2022-11-26T10:55:07.505Z,6.10
2022-11-26T10:57:35.607Z,6.20
2022-11-26T11:00:02.213Z,6.30
2022-11-26T11:02:31.151Z,6.40
2022-11-26T11:04:59.069Z,6.30
2022-11-26T11:07:37.922Z,6.20
2022-11-26T11:10:13.104Z,6.00
2022-11-26T11:12:40.483Z,6.00
2022-11-26T11:15:20.851Z,6.00
2022-11-26T11:17:54.733Z,5.90
2022-11-26T11:20:47.480Z,5.90
2022-11-26T11:23:14.050Z,6.00
2022-11-26T11:25:43.671Z,6.00
2022-11-26T11:28:13.351Z,6.00
2022-11-26T11:30:41.087Z,5.90
2022-11-26T11:33:24.228Z,5.80
2022-11-26T11:35:58.243Z,5.90
2022-11-26T11:38:26.394Z,5.80
2022-11-26T11:40:53.168Z,5.70
2022-11-26T11:43:22.494Z,5.70
2022-11-26T11:45:53.464Z,5.70
2022-11-26T11:48:43.514Z,5.70
2022-11-26T11:51:28.838Z,5.70
2022-11-26T11:54:03.724Z,5.60
2022-11-26T12:02:45.983Z,6.50
2022-11-26T12:05:35.871Z,6.10
2022-11-26T12:08:17.395Z,5.90
2022-11-26T12:10:59.091Z,5.70
2022-11-26T12:13:26.688Z,5.70
2022-11-26T12:16:00.229Z,5.60
2022-11-26T12:19:39.506Z,5.60
2022-11-26T12:22:20.418Z,5.60
2022-11-26T12:25:03.133Z,5.60
2022-11-26T12:27:56.253Z,5.60
2022-11-26T12:30:25.965Z,5.60
2022-11-26T12:33:12.857Z,5.60
2022-11-26T12:35:42.032Z,5.60
2022-11-26T12:38:21.794Z,5.60
2022-11-26T12:40:51.247Z,5.80
2022-11-26T12:43:20.034Z,6.10
2022-11-26T12:45:52.597Z,6.20
2022-11-26T12:48:28.035Z,6.10
2022-11-26T12:51:00.704Z,6.00
2022-11-26T12:53:41.474Z,6.00
2022-11-26T12:56:19.107Z,6.00
2022-11-26T12:58:54.726Z,5.90
2022-11-26T13:01:24.055Z,5.90
2022-11-26T13:03:59.545Z,5.90
2022-11-26T13:06:45.840Z,5.90
2022-11-26T13:09:21.094Z,6.10
2022-11-26T13:12:06.765Z,6.40
2022-11-26T13:14:33.402Z,6.80
2022-11-26T13:17:05.026Z,7.80
2022-11-26T13:19:44.819Z,8.30
2022-11-26T13:22:26.910Z,8.20
2022-11-26T13:24:53.528Z,8.00
2022-11-26T13:27:25.131Z,7.70
2022-11-26T13:29:58.468Z,7.60
2022-11-26T13:32:28.100Z,7.60
2022-11-26T13:34:57.807Z,8.50
2022-11-26T13:37:33.710Z,10.30
2022-11-26T13:40:08.562Z,11.90
2022-11-26T13:42:42.161Z,13.30
2022-11-26T13:45:08.747Z,14.10
2022-11-26T13:48:04.831Z,13.80
2022-11-26T13:50:43.665Z,13.80
2022-11-26T13:53:16.862Z,14.40
2022-11-26T13:55:49.215Z,15.40
2022-11-26T13:58:22.426Z,15.20
2022-11-26T14:00:49.220Z,15.20
2022-11-26T14:03:34.280Z,15.60
2022-11-26T14:06:06.544Z,15.70
2022-11-26T14:08:36.479Z,15.80
2022-11-26T14:11:03.741Z,16.50
2022-11-26T14:13:30.708Z,16.20
2022-11-26T14:19:59.005Z,16.10
2022-11-26T14:22:27.509Z,16.60
2022-11-26T14:24:55.923Z,16.60
2022-11-26T14:27:23.783Z,16.10
2022-11-26T14:30:13.028Z,15.60
2022-11-26T14:32:41.580Z,15.80
2022-11-26T14:35:34.084Z,15.20
2022-11-26T14:38:02.702Z,15.20
2022-11-26T14:40:30.734Z,15.90
2022-11-26T14:43:15.340Z,15.60
2022-11-26T14:45:43.280Z,14.90
2022-11-26T14:48:26.638Z,14.50
2022-11-26T14:50:54.331Z,14.30
2022-11-26T14:53:21.960Z,14.30
2022-11-26T14:55:49.340Z,14.60
2022-11-26T14:58:18.871Z,14.60
2022-11-26T15:01:00.302Z,13.90
2022-11-26T15:03:27.036Z,12.60
2022-11-26T15:05:53.765Z,11.10
2022-11-26T15:08:23.858Z,10.30
2022-11-26T15:11:07.094Z,9.50
2022-11-26T15:13:41.601Z,8.60
2022-11-26T15:16:26.810Z,7.80
2022-11-26T15:18:54.543Z,7.30
2022-11-26T15:21:22.879Z,7.00
2022-11-26T15:23:50.075Z,6.70
2022-11-26T15:26:18.372Z,6.60
2022-11-26T15:28:45.230Z,6.50
2022-11-26T15:31:11.991Z,6.40
2022-11-26T15:33:39.098Z,6.30
2022-11-26T15:36:06.921Z,6.10
2022-11-26T15:38:34.924Z,6.00
2022-11-26T15:41:01.889Z,5.80
2022-11-26T15:43:31.319Z,5.70
2022-11-26T15:46:03.319Z,5.60
2022-11-26T15:48:50.892Z,5.40
2022-11-26T15:51:35.471Z,5.30
2022-11-26T15:54:04.040Z,5.20
2022-11-26T15:56:32.449Z,5.00
2022-11-26T15:59:00.618Z,4.80
2022-11-26T16:01:30.642Z,4.70
2022-11-26T16:03:57.385Z,4.60
2022-11-26T16:06:32.064Z,4.50
2022-11-26T16:09:21.292Z,4.40
2022-11-26T16:11:57.519Z,4.20
2022-11-26T16:14:35.658Z,4.00
2022-11-26T16:17:08.296Z,3.90
2022-11-26T16:19:35.753Z,3.80
2022-11-26T16:22:03.366Z,3.60
2022-11-26T16:24:34.084Z,3.50
2022-11-26T16:27:02.352Z,3.40
2022-11-26T16:29:29.753Z,3.30
2022-11-26T16:31:56.495Z,3.20
2022-11-26T16:34:25.472Z,3.10
2022-11-26T16:36:58.918Z,3.10
2022-11-26T16:39:29.987Z,3.00
2022-11-26T16:41:57.285Z,3.00
2022-11-26T16:44:23.899Z,2.90
2022-11-26T16:46:51.212Z,2.90
2022-11-26T16:49:17.819Z,2.70
2022-11-26T16:51:44.428Z,2.70
2022-11-26T16:54:11.090Z,2.60
2022-11-26T16:56:38.261Z,2.60
2022-11-26T16:59:05.913Z,2.50
2022-11-26T17:01:33.220Z,2.40
2022-11-26T17:03:59.891Z,2.40
2022-11-26T17:06:29.087Z,2.40
2022-11-26T17:08:56.437Z,2.30
2022-11-26T17:11:23.741Z,2.30
2022-11-26T17:13:50.574Z,2.40
2022-11-26T17:16:18.472Z,2.40
2022-11-26T17:18:45.268Z,2.40
2022-11-26T17:21:12.176Z,2.30
2022-11-26T17:23:38.795Z,2.20
2022-11-26T17:26:13.127Z,2.10
2022-11-26T17:28:39.724Z,2.20
2022-11-26T17:31:06.631Z,2.20
2022-11-26T17:33:33.255Z,2.30
2022-11-26T17:35:59.876Z,2.30
2022-11-26T17:38:26.471Z,2.20
2022-11-26T17:40:53.064Z,2.10
2022-11-26T17:43:19.683Z,2.00
2022-11-26T17:45:46.358Z,1.90
2022-11-26T17:48:13.836Z,1.80
2022-11-26T17:50:40.917Z,1.80
2022-11-26T17:53:07.530Z,1.80
2022-11-26T17:55:34.220Z,1.70
2022-11-26T17:58:00.827Z,1.70
2022-11-26T18:00:28.708Z,1.60
2022-11-26T18:02:55.975Z,1.60
2022-11-26T18:05:22.814Z,1.60
2022-11-26T18:07:52.519Z,1.60
2022-11-26T18:10:20.584Z,1.60
2022-11-26T18:12:47.299Z,1.60
2022-11-26T18:15:21.287Z,1.50
2022-11-26T18:17:50.653Z,1.50
2022-11-26T18:20:18.250Z,1.50
2022-11-26T18:22:46.735Z,1.30
2022-11-26T18:25:13.826Z,1.20
2022-11-26T18:27:40.542Z,1.30
2022-11-26T18:30:07.542Z,1.20
2022-11-26T18:32:34.168Z,1.20
2022-11-26T18:35:01.253Z,1.40
2022-11-26T18:37:27.850Z,1.30
2022-11-26T18:39:54.500Z,1.30
2022-11-26T18:42:36.615Z,1.30
2022-11-26T18:45:04.275Z,1.30
2022-11-26T18:47:30.877Z,1.40
2022-11-26T18:49:57.539Z,1.40
2022-11-26T18:52:24.138Z,1.30
2022-11-26T18:54:50.837Z,1.30
2022-11-26T18:57:17.447Z,1.30
2022-11-26T18:59:44.744Z,1.30
2022-11-26T19:02:11.450Z,1.30
2022-11-26T19:04:38.895Z,1.30
2022-11-26T19:07:05.535Z,1.20
2022-11-26T19:09:32.200Z,1.10
2022-11-26T19:11:58.808Z,1.00
2022-11-26T19:14:25.459Z,0.70
2022-11-26T19:16:52.157Z,0.60
2022-11-26T19:19:18.940Z,0.70
2022-11-26T19:21:45.582Z,0.80
2022-11-26T19:24:12.638Z,0.90
2022-11-26T19:26:41.190Z,0.90
2022-11-26T19:29:09.149Z,0.90
2022-11-26T19:31:38.824Z,0.90
2022-11-26T19:34:06.622Z,0.90
2022-11-26T19:36:33.449Z,0.90
2022-11-26T19:39:00.658Z,0.90
2022-11-26T19:41:27.759Z,0.80
2022-11-26T19:43:54.848Z,0.80
2022-11-26T19:46:22.928Z,0.80
2022-11-26T19:48:50.258Z,0.80
2022-11-26T19:51:17.648Z,0.80
2022-11-26T19:53:48.296Z,0.70
2022-11-26T19:56:16.719Z,0.70
2022-11-26T19:58:43.314Z,0.70
2022-11-26T20:01:12.037Z,0.60
2022-11-26T20:03:38.682Z,0.50
2022-11-26T20:06:06.432Z,0.60
2022-11-26T20:08:33.598Z,0.70
2022-11-26T20:11:04.056Z,0.80
2022-11-26T20:13:30.663Z,0.70
2022-11-26T20:15:57.282Z,0.60
2022-11-26T20:18:23.932Z,0.40
2022-11-26T20:21:00.749Z,0.40
2022-11-26T20:23:27.696Z,0.30
2022-11-26T20:25:54.623Z,0.30
2022-11-26T20:28:21.514Z,0.20
2022-11-26T20:30:48.220Z,0.30
2022-11-26T20:33:16.224Z,0.30
2022-11-26T20:35:43.497Z,0.30
2022-11-26T20:38:10.196Z,0.30
2022-11-26T20:40:39.452Z,0.20
2022-11-26T20:43:06.034Z,0.10
2022-11-26T20:45:32.632Z,0.10
2022-11-26T20:47:59.289Z,0.20
2022-11-26T20:50:25.897Z,0.10
2022-11-26T20:52:52.533Z,0.10
2022-11-26T20:55:21.879Z,0.10
2022-11-26T20:57:49.031Z,0.10
2022-11-26T21:00:17.058Z,0.10
2022-11-26T21:02:44.561Z,0.10
2022-11-26T21:05:11.671Z,0.00
2022-11-26T21:07:38.328Z,-0.10
2022-11-26T21:10:05.345Z,-0.10
2022-11-26T21:12:32.052Z,0.00
2022-11-26T21:14:58.690Z,-0.10
2022-11-26T21:17:25.484Z,-0.10
2022-11-26T21:19:52.200Z,-0.20
2022-11-26T21:22:18.793Z,-0.30
2022-11-26T21:24:45.423Z,-0.30
2022-11-26T21:27:12.028Z,-0.30
2022-11-26T21:29:38.936Z,-0.30
2022-11-26T21:32:05.982Z,-0.30
2022-11-26T21:34:32.906Z,-0.20
2022-11-26T21:37:02.880Z,-0.30
2022-11-26T21:39:29.554Z,-0.30
2022-11-26T21:41:56.189Z,-0.30
2022-11-26T21:44:22.799Z,-0.30
2022-11-26T21:46:49.599Z,-0.50
2022-11-26T21:49:17.188Z,-0.50
2022-11-26T21:51:43.900Z,-0.50
2022-11-26T21:54:10.640Z,-0.40
2022-11-26T21:56:37.431Z,-0.40
2022-11-26T21:59:04.442Z,-0.40
2022-11-26T22:01:35.176Z,-0.40
2022-11-26T22:04:04.399Z,-0.50
2022-11-26T22:06:31.307Z,-0.60
2022-11-26T22:08:58.153Z,-0.60
2022-11-26T22:11:29.082Z,-0.70
2022-11-26T22:13:55.865Z,-0.70
2022-11-26T22:16:23.616Z,-0.70
2022-11-26T22:18:50.813Z,-0.70
2022-11-26T22:21:19.005Z,-0.70
2022-11-26T22:23:45.653Z,-0.70
2022-11-26T22:26:12.352Z,-0.70
2022-11-26T22:28:39.062Z,-0.80
2022-11-26T22:31:13.850Z,-0.80
2022-11-26T22:33:40.715Z,-0.80
2022-11-26T22:36:07.593Z,-0.80
2022-11-26T22:38:35.139Z,-0.90
2022-11-26T22:41:02.869Z,-0.90
2022-11-26T22:43:29.835Z,-1.00
2022-11-26T22:45:56.617Z,-0.90
2022-11-26T22:48:23.381Z,-0.90
2022-11-26T22:50:51.013Z,-0.90
2022-11-26T22:53:17.598Z,-0.90
2022-11-26T22:55:51.392Z,-0.90
2022-11-26T22:58:18.868Z,-0.90
2022-11-26T23:00:45.764Z,-0.90
2022-11-26T23:03:12.624Z,-1.00
2022-11-26T23:05:39.460Z,-1.10
2022-11-26T23:08:06.071Z,-1.30
2022-11-26T23:10:32.704Z,-1.30
2022-11-26T23:12:59.343Z,-1.40
2022-11-26T23:15:26.064Z,-1.30
2022-11-26T23:17:52.672Z,-1.30
2022-11-26T23:20:19.411Z,-1.30
2022-11-26T23:22:46.019Z,-1.20
2022-11-26T23:25:12.635Z,-1.20
2022-11-26T23:27:39.270Z,-1.30
2022-11-26T23:30:06.259Z,-1.20
2022-11-26T23:32:32.876Z,-1.20
2022-11-26T23:34:59.570Z,-1.20
2022-11-26T23:37:26.266Z,-1.20
2022-11-26T23:39:52.895Z,-1.20
2022-11-26T23:42:19.608Z,-1.30
2022-11-26T23:44:46.251Z,-1.30
2022-11-26T23:47:12.886Z,-1.30
2022-11-26T23:49:39.787Z,-1.30
2022-11-26T23:52:06.626Z,-1.30
2022-11-26T23:54:33.222Z,-1.40
2022-11-26T23:56:59.851Z,-1.50
2022-11-26T23:59:26.473Z,-1.60
